Time;durP1;ratioP1;P1;durP2;ratioP2;P2;SDS_P1;SDS_P2;PMS_P1;PMS_P2;Temp;Humidity;BMP_temperature;BMP_pressure;BME280_temperature;BME280_humidity;BME280_pressure;Samples;Min_cycle;Max_cycle;Signal;HPM_P1;HPM_P2
2022/09/21 00:00:19;;;;;;;13.25;3.70;;;;;;;12.45;86.95;102595.34;4983820;28;20395;-42
2022/09/21 00:02:45;;;;;;;16.50;3.47;;;;;;;12.47;87.19;102587.94;4983016;28;20046;-42
2022/09/21 00:05:10;;;;;;;12.50;3.95;;;;;;;12.47;87.07;102590.63;4983755;28;20122;-42
2022/09/21 00:07:36;;;;;;;14.38;3.17;;;;;;;12.54;87.29;102592.75;4982274;28;20547;-43
2022/09/21 00:10:01;;;;;;;19.80;3.08;;;;;;;12.58;87.63;102584.16;4982192;28;20034;-42
2022/09/21 00:12:26;;;;;;;16.05;3.40;;;;;;;12.59;87.16;102590.44;4982163;28;20038;-42
2022/09/21 00:14:52;;;;;;;15.82;3.13;;;;;;;12.60;86.87;102586.72;4983236;28;20019;-41
2022/09/21 00:17:17;;;;;;;14.75;2.85;;;;;;;12.59;86.81;102590.44;4983052;28;20069;-43
2022/09/21 00:19:43;;;;;;;12.35;2.65;;;;;;;12.57;86.94;102589.75;4983910;28;20480;-42
2022/09/21 00:22:08;;;;;;;7.35;2.78;;;;;;;12.58;87.05;102581.47;4984199;28;20058;-41
2022/09/21 00:24:34;;;;;;;17.42;2.88;;;;;;;12.53;86.35;102581.06;4985165;28;20077;-43
2022/09/21 00:26:59;;;;;;;8.68;2.70;;;;;;;12.56;86.96;102586.19;4983183;28;20419;-42
2022/09/21 00:29:24;;;;;;;15.70;3.15;;;;;;;12.58;86.76;102583.31;4983792;28;20039;-42
2022/09/21 00:31:50;;;;;;;13.30;3.05;;;;;;;12.59;86.64;102585.88;4982803;28;20030;-42
2022/09/21 00:34:15;;;;;;;10.85;2.75;;;;;;;12.61;86.49;102580.31;4983425;28;20026;-43
2022/09/21 00:36:40;;;;;;;14.88;3.58;;;;;;;12.60;86.25;102582.16;4983862;28;20035;-42
2022/09/21 00:39:06;;;;;;;15.18;3.10;;;;;;;12.63;86.67;102578.31;4983835;28;20050;-42
2022/09/21 00:41:32;;;;;;;14.93;4.05;;;;;;;12.63;86.88;102581.84;4983212;28;20045;-42
2022/09/21 00:44:30;;;;;;;8.52;2.80;;;;;;;12.66;87.15;102580.69;4983054;28;20149;-42
2022/09/21 00:46:59;;;;;;;15.23;2.90;;;;;;;12.66;86.91;102581.53;4983137;28;20058;-43
2022/09/21 00:49:25;;;;;;;19.38;3.47;;;;;;;12.67;86.34;102577.00;4982101;28;20027;-42
2022/09/21 00:51:52;;;;;;;24.45;3.60;;;;;;;12.61;85.73;102577.59;4983819;28;20031;-43
2022/09/21 00:54:26;;;;;;;11.30;3.35;;;;;;;12.59;86.75;102574.22;4984387;28;20033;-42
2022/09/21 00:56:53;;;;;;;13.57;2.63;;;;;;;12.55;87.25;102573.66;4983318;28;20039;-42
2022/09/21 00:59:19;;;;;;;7.57;2.53;;;;;;;12.51;87.23;102578.53;4983603;28;20030;-42
2022/09/21 01:01:45;;;;;;;11.32;2.90;;;;;;;12.54;87.84;102579.25;4981981;28;20034;-42
2022/09/21 01:04:12;;;;;;;13.52;3.13;;;;;;;12.59;88.60;102575.06;4983491;28;20046;-41
2022/09/21 01:06:38;;;;;;;16.47;3.67;;;;;;;12.61;88.64;102577.59;4982316;28;20034;-42
2022/09/21 01:09:04;;;;;;;10.20;2.60;;;;;;;12.61;88.61;102575.78;4982438;28;20051;-42
2022/09/21 01:11:57;;;;;;;17.67;3.15;;;;;;;12.63;88.73;102573.75;4985287;28;20042;-41
2022/09/21 01:14:46;;;;;;;9.25;3.05;;;;;;;12.64;88.75;102571.94;4987966;28;20022;-42
2022/09/21 01:17:30;;;;;;;9.35;2.88;;;;;;;12.57;88.14;102574.38;4985224;28;20035;-42
2022/09/21 01:19:56;;;;;;;21.08;3.05;;;;;;;12.49;88.23;102577.84;4985973;28;20054;-42
2022/09/21 01:22:42;;;;;;;16.25;3.30;;;;;;;12.47;88.96;102573.59;4986214;28;20045;-42
2022/09/21 01:25:18;;;;;;;9.50;3.30;;;;;;;12.42;89.24;102574.03;4986541;28;20445;-41
2022/09/21 01:27:53;;;;;;;18.42;3.40;;;;;;;12.40;90.03;102570.66;4982655;28;20046;-42
2022/09/21 01:30:20;;;;;;;13.50;3.05;;;;;;;12.40;90.36;102570.66;4985528;28;20173;-41
2022/09/21 01:32:56;;;;;;;16.63;3.83;;;;;;;12.42;90.97;102570.50;4985694;28;20034;-42
2022/09/21 01:35:33;;;;;;;14.48;3.30;;;;;;;12.38;91.00;102567.25;4979060;28;20039;-42
2022/09/21 01:38:02;;;;;;;9.18;3.42;;;;;;;12.38;90.98;102569.13;4983483;28;20253;-41
2022/09/21 01:40:35;;;;;;;12.75;3.10;;;;;;;12.39;91.26;102568.94;4984847;28;20062;-42
2022/09/21 01:43:02;;;;;;;11.60;3.90;;;;;;;12.39;91.44;102568.94;4983995;28;20144;-41
2022/09/21 01:45:39;;;;;;;11.27;3.40;;;;;;;12.41;91.71;102572.34;4984717;28;20453;-41
2022/09/21 01:48:05;;;;;;;15.32;3.38;;;;;;;12.41;91.80;102583.16;4985860;28;20038;-41
2022/09/21 01:50:35;;;;;;;15.73;3.10;;;;;;;12.44;91.58;102582.00;4983838;28;20042;-41
2022/09/21 01:53:06;;;;;;;12.73;3.10;;;;;;;12.47;91.84;102579.81;4982051;28;20066;-41
2022/09/21 01:56:01;;;;;;;12.98;3.17;;;;;;;12.47;91.65;102577.13;4984005;28;20074;-42
2022/09/21 01:58:36;;;;;;;11.65;3.30;;;;;;;12.51;91.83;102573.13;4976339;28;20055;-42
2022/09/21 02:01:02;;;;;;;19.38;3.85;;;;;;;12.52;91.79;102580.22;4986028;28;20038;-42
2022/09/21 02:03:44;;;;;;;12.88;3.67;;;;;;;12.51;91.46;102583.09;4984721;28;20038;-42
2022/09/21 02:06:10;;;;;;;14.07;3.63;;;;;;;12.51;91.43;102583.94;5026871;23;20053;-76
2022/09/21 02:08:35;;;;;;;23.65;4.20;;;;;;;12.50;91.36;102593.03;4998187;28;20034;-74
2022/09/21 02:11:03;;;;;;;14.27;3.42;;;;;;;12.48;90.56;102583.38;4996398;28;20474;-74
2022/09/21 02:13:32;;;;;;;11.40;3.17;;;;;;;12.51;90.61;102578.53;4996952;28;20037;-74
2022/09/21 02:16:24;;;;;;;13.93;3.50;;;;;;;12.49;90.62;102585.09;4996438;28;20384;-76
2022/09/21 02:18:56;;;;;;;10.65;3.38;;;;;;;12.47;90.79;102582.53;4977529;28;20026;-76
2022/09/21 02:21:30;;;;;;;16.25;3.15;;;;;;;12.49;91.01;102590.50;4981568;28;20028;-76
2022/09/21 02:24:20;;;;;;;13.00;3.40;;;;;;;12.52;91.07;102593.72;4996670;28;20022;-73
2022/09/21 02:27:09;;;;;;;10.70;3.38;;;;;;;12.56;91.30;102593.41;4980620;28;20029;-75
2022/09/21 02:29:45;;;;;;;12.95;3.42;;;;;;;12.58;91.33;102597.66;5004996;28;20571;-75
2022/09/21 02:32:34;;;;;;;12.23;3.40;;;;;;;12.60;91.92;102592.13;5014042;28;20029;-75
2022/09/21 02:35:03;;;;;;;23.02;3.75;;;;;;;12.62;91.85;102595.53;5013969;28;20405;-74
2022/09/21 02:37:35;;;;;;;13.68;3.08;;;;;;;12.61;91.52;102588.41;4996403;28;20564;-75
2022/09/21 02:40:31;;;;;;;13.85;3.53;;;;;;;12.61;91.38;102588.41;5014003;28;20096;-74
2022/09/21 02:43:00;;;;;;;16.17;2.80;;;;;;;12.60;91.37;102587.56;4991211;28;20040;-76
2022/09/21 02:45:30;;;;;;;9.07;3.40;;;;;;;12.57;91.10;102577.06;4995367;28;20034;-75
2022/09/21 02:48:00;;;;;;;20.33;4.00;;;;;;;12.57;91.20;102578.94;4995276;28;20037;-75
2022/09/21 02:50:40;;;;;;;12.60;3.25;;;;;;;12.56;91.04;102571.81;4997070;28;20478;-76
2022/09/21 02:53:07;;;;;;;15.68;3.85;;;;;;;12.51;90.47;102573.13;4996500;28;20041;-75
2022/09/21 02:55:32;;;;;;;11.68;3.25;;;;;;;12.52;91.14;102574.81;4995166;28;20026;-75
2022/09/21 02:58:01;;;;;;;14.48;3.08;;;;;;;12.44;90.72;102566.63;5012501;28;20121;-75
2022/09/21 03:00:26;;;;;;;16.63;3.60;;;;;;;12.45;90.76;102568.34;4994982;28;20026;-75
2022/09/21 03:02:52;;;;;;;21.90;4.00;;;;;;;12.37;90.19;102570.94;5013866;28;20128;-76
2022/09/21 03:05:17;;;;;;;13.30;3.08;;;;;;;12.32;90.43;102567.84;4995617;28;20057;-74
2022/09/21 03:07:42;;;;;;;15.43;2.70;;;;;;;12.31;90.62;102571.56;5013423;28;20061;-75
2022/09/21 03:10:08;;;;;;;16.35;2.90;;;;;;;12.26;90.56;102574.69;5013593;28;20026;-75
2022/09/21 03:12:34;;;;;;;17.83;3.63;;;;;;;12.18;89.63;102573.75;5011644;28;20030;-75
2022/09/21 03:14:59;;;;;;;12.13;2.80;;;;;;;12.11;89.89;102575.34;5011364;28;20026;-75
2022/09/21 03:17:26;;;;;;;8.80;2.78;;;;;;;12.03;90.26;102579.66;4994147;28;20461;-76
2022/09/21 03:19:53;;;;;;;10.73;3.55;;;;;;;12.01;91.03;102580.81;5004558;28;20035;-73
2022/09/21 03:22:20;;;;;;;12.45;3.00;;;;;;;11.94;91.42;102577.00;5003059;28;20030;-73
2022/09/21 03:24:45;;;;;;;21.13;3.58;;;;;;;11.92;91.93;102571.75;4995772;28;20030;-76
2022/09/21 03:27:16;;;;;;;17.20;3.50;;;;;;;11.91;92.50;102574.59;5013434;28;20052;-74
2022/09/21 03:29:41;;;;;;;21.15;3.83;;;;;;;11.87;92.47;102574.03;5013121;28;20065;-75
2022/09/21 03:32:07;;;;;;;13.45;3.00;;;;;;;11.83;92.68;102575.31;5013713;28;20083;-75
2022/09/21 03:34:33;;;;;;;13.10;3.60;;;;;;;11.79;92.55;102581.97;5012894;28;20069;-74
2022/09/21 03:37:00;;;;;;;14.18;3.60;;;;;;;11.76;93.09;102587.69;5014478;28;20054;-74
2022/09/21 03:39:25;;;;;;;13.30;4.33;;;;;;;11.73;93.39;102579.88;5022104;28;20385;-74
2022/09/21 03:41:51;;;;;;;15.48;3.75;;;;;;;11.68;93.62;102580.31;5014724;28;20033;-74
2022/09/21 03:44:16;;;;;;;9.57;3.47;;;;;;;11.63;93.71;102588.84;4997385;28;20040;-74
2022/09/21 03:46:42;;;;;;;8.05;3.25;;;;;;;11.63;94.43;102583.44;4997302;28;20026;-75
2022/09/21 03:49:08;;;;;;;13.50;4.38;;;;;;;11.59;94.68;102592.00;5000800;28;20394;-75
2022/09/21 03:51:33;;;;;;;15.85;3.47;;;;;;;11.56;95.05;102595.84;5012289;28;20136;-75
2022/09/21 03:53:58;;;;;;;17.50;4.00;;;;;;;11.56;95.50;102587.75;5009896;28;20030;-74
2022/09/21 03:56:24;;;;;;;15.40;3.90;;;;;;;11.52;95.99;102586.31;5013097;28;20025;-74
2022/09/21 03:58:49;;;;;;;14.00;4.07;;;;;;;11.49;96.13;102592.00;5013261;28;20042;-74
2022/09/21 04:01:14;;;;;;;12.32;4.38;;;;;;;11.49;96.31;102592.00;4985879;28;20037;-74
2022/09/21 04:03:40;;;;;;;15.25;4.28;;;;;;;11.48;96.65;102593.00;4992816;28;20026;-74
2022/09/21 04:06:09;;;;;;;16.90;4.47;;;;;;;11.47;96.65;102595.84;5012063;28;20124;-74
2022/09/21 04:08:34;;;;;;;16.02;3.95;;;;;;;11.45;96.94;102593.28;4998960;28;20476;-74
2022/09/21 04:11:01;;;;;;;14.32;4.15;;;;;;;11.43;97.12;102592.59;4993182;28;20061;-75
2022/09/21 04:13:26;;;;;;;24.35;4.40;;;;;;;11.42;97.16;102588.19;5007366;28;20064;-74
2022/09/21 04:15:52;;;;;;;18.02;5.20;;;;;;;11.39;97.20;102591.16;4994599;28;20046;-75
2022/09/21 04:18:17;;;;;;;16.02;4.50;;;;;;;11.34;97.00;102588.91;4996424;28;20030;-74
2022/09/21 04:20:42;;;;;;;18.45;4.30;;;;;;;11.32;96.76;102584.66;5004900;28;20036;-74
2022/09/21 04:23:08;;;;;;;19.00;4.13;;;;;;;11.29;96.80;102582.25;5011093;28;20065;-74
2022/09/21 04:25:34;;;;;;;16.40;4.30;;;;;;;11.24;96.97;102579.97;5013940;28;20485;-75
2022/09/21 04:28:00;;;;;;;16.80;4.47;;;;;;;11.26;97.39;102585.22;5007789;28;20030;-74
2022/09/21 04:30:25;;;;;;;16.40;4.35;;;;;;;11.24;97.30;102581.81;5020655;28;20030;-74
2022/09/21 04:32:50;;;;;;;17.58;4.32;;;;;;;11.22;97.38;102582.00;4997457;28;20037;-74
2022/09/21 04:35:16;;;;;;;13.20;4.22;;;;;;;11.21;97.15;102578.41;4993711;28;20022;-74
2022/09/21 04:37:41;;;;;;;23.65;4.88;;;;;;;11.18;97.22;102578.72;5003664;28;20537;-74
2022/09/21 04:40:08;;;;;;;12.02;3.88;;;;;;;11.16;96.92;102583.41;5011360;28;20030;-75
2022/09/21 04:42:34;;;;;;;16.27;4.13;;;;;;;11.11;96.46;102582.13;5011172;28;20025;-75
2022/09/21 04:44:59;;;;;;;20.17;4.28;;;;;;;11.11;96.69;102582.13;4977347;28;20470;-75
2022/09/21 04:47:25;;;;;;;18.23;4.35;;;;;;;11.10;97.16;102583.97;5015354;28;20041;-76
2022/09/21 04:49:52;;;;;;;18.52;4.30;;;;;;;11.10;97.40;102583.13;4997332;28;20037;-75
2022/09/21 04:52:17;;;;;;;14.43;4.35;;;;;;;11.13;97.38;102585.53;5014274;28;20042;-76
2022/09/21 04:54:43;;;;;;;22.42;5.07;;;;;;;11.14;97.33;102581.84;4994415;28;20029;-75
2022/09/21 04:57:08;;;;;;;22.10;5.25;;;;;;;11.15;97.42;102584.38;5015718;28;20103;-75
2022/09/21 04:59:33;;;;;;;15.00;4.40;;;;;;;11.19;97.72;102585.81;5007687;28;20089;-75
2022/09/21 05:01:59;;;;;;;15.95;5.03;;;;;;;11.19;97.65;102580.44;4998670;28;20026;-75
2022/09/21 05:04:24;;;;;;;18.73;5.20;;;;;;;11.21;97.21;102591.03;4988747;28;20038;-76
2022/09/21 05:06:49;;;;;;;12.23;5.68;;;;;;;11.23;97.17;102588.22;5011169;28;20050;-75
2022/09/21 05:11:59;;;;;;;15.63;4.55;;;;;;;11.23;97.37;102590.91;5000207;28;20067;-75
2022/09/21 05:14:24;;;;;;;22.58;5.15;;;;;;;11.23;97.37;102590.91;5011553;28;20026;-75
2022/09/21 05:16:49;;;;;;;20.45;5.60;;;;;;;11.23;97.45;102591.75;5012616;28;20165;-75
2022/09/21 05:19:16;;;;;;;16.42;4.63;;;;;;;11.25;97.46;102588.94;5013404;28;20033;-76
2022/09/21 05:21:41;;;;;;;24.42;5.28;;;;;;;11.27;97.34;102595.00;4997600;28;20022;-75
2022/09/21 05:24:07;;;;;;;19.42;5.05;;;;;;;11.30;97.84;102586.66;5009255;28;20041;-75
2022/09/21 05:26:32;;;;;;;18.40;5.95;;;;;;;11.33;97.65;102594.44;5010974;28;20041;-75
2022/09/21 05:28:59;;;;;;;19.75;5.75;;;;;;;11.34;97.54;102597.00;4996952;28;20041;-76
2022/09/21 05:31:38;;;;;;;18.60;6.60;;;;;;;11.38;97.49;102589.47;4971584;28;20038;-75
2022/09/21 05:34:20;;;;;;;28.10;6.53;;;;;;;11.40;97.51;102596.44;4975190;28;20022;-75
2022/09/21 05:36:49;;;;;;;24.80;5.85;;;;;;;11.41;97.23;102594.59;4996275;28;20046;-76
2022/09/21 05:39:14;;;;;;;20.90;5.32;;;;;;;11.45;97.35;102595.97;5013646;28;20030;-75
2022/09/21 05:41:40;;;;;;;15.38;5.40;;;;;;;11.46;97.27;102597.69;4995822;28;20449;-75
2022/09/21 05:44:06;;;;;;;18.38;5.53;;;;;;;11.49;97.09;102602.78;5005924;28;20425;-74
2022/09/21 05:46:38;;;;;;;26.45;7.43;;;;;;;11.55;97.28;102607.59;5011671;28;20026;-73
2022/09/21 05:49:12;;;;;;;23.38;7.32;;;;;;;11.56;97.00;102601.22;4993777;28;20140;-74
2022/09/21 05:51:49;;;;;;;29.17;7.22;;;;;;;11.57;96.93;102600.22;5014129;28;20037;-75
2022/09/21 05:54:21;;;;;;;29.05;6.05;;;;;;;11.59;96.90;102598.22;4999085;28;20168;-75
2022/09/21 05:57:13;;;;;;;29.63;6.30;;;;;;;11.60;96.65;102607.16;4988052;28;20409;-75
2022/09/21 05:59:50;;;;;;;31.38;7.25;;;;;;;11.61;96.58;102606.16;5002141;28;20365;-75
2022/09/21 06:02:52;;;;;;;26.27;6.93;;;;;;;11.61;96.53;102601.66;5016264;28;20034;-76
2022/09/21 06:05:18;;;;;;;25.58;6.30;;;;;;;11.62;96.62;102611.41;5015140;28;20092;-73
2022/09/21 06:07:43;;;;;;;25.20;6.93;;;;;;;11.67;96.24;102610.16;4994785;28;20113;-76
2022/09/21 06:10:11;;;;;;;36.97;7.43;;;;;;;11.67;96.08;102615.53;4994399;28;20072;-75
2022/09/21 06:12:36;;;;;;;33.25;7.82;;;;;;;11.68;95.79;102611.84;4995373;28;20453;-74
2022/09/21 06:15:03;;;;;;;25.95;7.60;;;;;;;11.69;95.88;102618.91;5011044;28;20084;-74
2022/09/21 06:17:28;;;;;;;28.30;7.40;;;;;;;11.75;95.83;102610.25;5015110;28;20034;-76
2022/09/21 06:19:54;;;;;;;24.23;7.50;;;;;;;11.75;95.38;102611.09;5016337;28;20080;-75
2022/09/21 06:22:19;;;;;;;30.13;7.53;;;;;;;11.78;94.99;102609.97;5014218;28;20111;-75
2022/09/21 06:24:45;;;;;;;26.75;6.97;;;;;;;11.79;94.92;102612.50;5012401;28;20049;-76
2022/09/21 06:27:10;;;;;;;37.97;7.55;;;;;;;11.87;95.04;102614.50;5019197;28;20084;-75
2022/09/21 06:29:35;;;;;;;42.90;8.27;;;;;;;11.89;95.02;102612.50;5012033;28;20046;-75
2022/09/21 06:32:02;;;;;;;36.70;7.47;;;;;;;11.91;94.78;102607.81;5014857;28;20081;-75
2022/09/21 06:34:28;;;;;;;57.88;9.25;;;;;;;11.90;94.48;102606.13;4988580;28;20030;-75
2022/09/21 06:36:53;;;;;;;38.22;7.90;;;;;;;11.90;94.06;102611.53;5021872;28;20089;-76
2022/09/21 06:39:18;;;;;;;51.95;9.57;;;;;;;11.89;93.91;102614.38;5019133;28;20485;-76
2022/09/21 06:41:44;;;;;;;39.80;7.72;;;;;;;11.95;94.18;102614.59;5020454;28;20247;-75
2022/09/21 06:44:09;;;;;;;34.80;8.90;;;;;;;12.14;94.13;102610.13;5020354;28;20042;-75
2022/09/21 06:46:34;;;;;;;31.13;7.05;;;;;;;12.26;93.40;102614.34;5017572;28;20119;-75
2022/09/21 06:49:00;;;;;;;25.83;6.90;;;;;;;12.29;91.21;102619.44;5019934;28;20038;-76
2022/09/21 06:51:25;;;;;;;35.58;7.70;;;;;;;12.38;89.78;102620.41;5018022;28;20422;-77
2022/09/21 06:53:55;;;;;;;26.30;8.20;;;;;;;12.34;87.64;102619.84;5018553;28;20041;-75
2022/09/21 06:56:21;;;;;;;34.13;9.18;;;;;;;12.54;87.24;102614.34;5019243;28;20029;-76
2022/09/21 06:58:47;;;;;;;26.08;8.30;;;;;;;12.64;86.46;102620.53;5018357;28;20041;-75
2022/09/21 07:01:13;;;;;;;22.98;7.47;;;;;;;12.84;86.49;102626.66;5018721;28;20037;-75
2022/09/21 07:03:40;;;;;;;24.00;7.35;;;;;;;13.02;85.72;102623.97;5003604;28;20041;-76
2022/09/21 07:06:06;;;;;;;30.15;6.18;;;;;;;13.11;83.35;102628.41;4984497;28;20030;-76
2022/09/21 07:08:32;;;;;;;32.60;6.85;;;;;;;13.12;82.34;102627.44;5017948;28;20026;-75
2022/09/21 07:10:58;;;;;;;27.45;5.70;;;;;;;13.31;82.43;102623.75;5020888;28;20033;-75
2022/09/21 07:13:25;;;;;;;18.10;5.20;;;;;;;13.80;82.90;102627.66;4985026;28;20130;-75
2022/09/21 07:15:50;;;;;;;29.80;5.95;;;;;;;14.75;80.28;102624.03;5018224;28;20025;-75
2022/09/21 07:18:16;;;;;;;17.63;5.30;;;;;;;15.73;73.10;102629.50;4985945;28;20179;-76
2022/09/21 07:20:41;;;;;;;16.95;5.00;;;;;;;16.73;67.00;102629.78;5002341;28;20026;-76
2022/09/21 07:23:13;;;;;;;18.80;3.97;;;;;;;17.95;62.50;102632.56;5002342;28;20450;-76
2022/09/21 07:25:38;;;;;;;19.55;4.95;;;;;;;18.60;59.83;102637.19;5020803;28;20514;-76
2022/09/21 07:28:04;;;;;;;14.77;3.92;;;;;;;19.62;56.20;102629.81;5018728;28;20065;-76
2022/09/21 07:30:29;;;;;;;21.05;4.22;;;;;;;19.86;53.21;102634.00;5003500;28;20033;-75
2022/09/21 07:32:54;;;;;;;14.55;3.33;;;;;;;19.80;52.54;102632.06;5021046;28;20029;-76
2022/09/21 07:35:20;;;;;;;13.50;3.90;;;;;;;19.94;51.16;102631.13;5001640;28;20074;-75
2022/09/21 07:37:45;;;;;;;20.50;3.83;;;;;;;20.17;50.34;102634.41;4995782;28;20022;-76
2022/09/21 07:40:10;;;;;;;12.60;3.00;;;;;;;20.53;49.35;102637.91;5015176;28;20141;-75
2022/09/21 07:42:36;;;;;;;17.67;3.30;;;;;;;20.66;48.23;102635.25;5015969;28;20429;-76
2022/09/21 07:45:01;;;;;;;17.08;3.03;;;;;;;21.21;46.51;102640.66;5015832;28;20037;-76
2022/09/21 07:47:27;;;;;;;19.65;3.67;;;;;;;21.69;47.07;102634.97;4998611;28;20629;-76
2022/09/21 07:49:53;;;;;;;9.55;3.08;;;;;;;22.20;46.19;102634.28;5015763;28;20041;-76
2022/09/21 07:52:18;;;;;;;16.73;3.60;;;;;;;22.40;44.38;102639.66;5014768;28;20057;-77
2022/09/21 07:54:44;;;;;;;13.52;3.50;;;;;;;22.32;44.62;102642.66;5016322;28;20074;-77
2022/09/21 07:59:56;;;;;;;17.35;2.80;;;;;;;23.19;42.00;102640.31;5012915;28;20085;-75
2022/09/21 08:02:21;;;;;;;12.38;2.08;;;;;;;23.48;40.35;102640.72;5013593;28;20488;-75
2022/09/21 08:04:46;;;;;;;19.20;3.00;;;;;;;23.42;41.26;102637.78;4997198;28;20030;-75
2022/09/21 08:07:12;;;;;;;13.73;2.10;;;;;;;23.23;39.20;102638.81;4981027;28;20058;-75
2022/09/21 08:09:37;;;;;;;7.57;2.03;;;;;;;22.90;40.96;102628.84;5013709;28;20030;-75
2022/09/21 08:12:02;;;;;;;15.82;2.00;;;;;;;22.28;41.51;102639.50;5014702;28;20374;-74
2022/09/21 08:14:28;;;;;;;6.40;2.10;;;;;;;21.95;43.99;102645.06;4996398;28;20045;-75
2022/09/21 08:16:53;;;;;;;16.75;2.63;;;;;;;21.18;44.58;102638.31;4995735;28;20030;-75
2022/09/21 08:19:19;;;;;;;16.60;2.00;;;;;;;20.85;44.29;102638.25;4995083;28;20018;-75
2022/09/21 08:21:48;;;;;;;9.30;1.63;;;;;;;20.09;46.68;102642.78;4996958;28;20076;-75
2022/09/21 08:24:13;;;;;;;11.77;1.67;;;;;;;20.00;46.73;102643.97;5013494;28;20032;-76
2022/09/21 08:26:39;;;;;;;11.10;1.70;;;;;;;20.37;46.26;102645.44;5010239;28;20456;-75
2022/09/21 08:29:05;;;;;;;11.68;1.85;;;;;;;21.01;43.13;102646.06;4995069;28;20026;-75
2022/09/21 08:31:30;;;;;;;19.67;1.65;;;;;;;20.89;43.54;102648.59;5013920;28;20044;-75
2022/09/21 08:33:56;;;;;;;13.43;1.50;;;;;;;20.73;43.65;102648.97;5015148;28;20030;-77
2022/09/21 08:36:22;;;;;;;15.98;1.70;;;;;;;20.61;44.74;102640.50;4979730;28;20036;-77
2022/09/21 08:38:48;;;;;;;13.38;1.90;;;;;;;20.27;45.50;102650.41;5013565;28;20033;-76
2022/09/21 08:41:42;;;;;;;7.32;1.40;;;;;;;19.66;45.38;102636.56;5014936;28;20041;-75
2022/09/21 08:44:23;;;;;;;9.68;1.52;;;;;;;19.68;46.02;102645.44;5016375;28;20053;-75
2022/09/21 08:47:01;;;;;;;9.70;2.15;;;;;;;19.44;46.53;102643.97;4983377;28;20041;-76
2022/09/21 08:49:26;;;;;;;;;;;;;;;18.95;47.24;102639.28;4999598;28;20037;-75
2022/09/21 08:52:03;;;;;;;11.18;1.77;;;;;;;18.53;48.99;102641.72;5003453;28;19913;-77
2022/09/21 08:54:43;;;;;;;8.98;1.63;;;;;;;19.04;48.51;102641.69;4999711;28;20048;-77
2022/09/21 08:57:13;;;;;;;11.57;1.65;;;;;;;19.35;47.35;102647.84;5006974;28;20032;-76
2022/09/21 08:59:43;;;;;;;5.82;1.40;;;;;;;20.24;44.55;102648.09;5022563;28;20030;-75
2022/09/21 09:02:36;;;;;;;14.15;2.17;;;;;;;21.40;43.39;102652.69;5009239;28;20022;-75
2022/09/21 09:05:31;;;;;;;6.10;0.93;;;;;;;22.61;40.90;102657.72;4997996;28;20101;-75
2022/09/21 09:08:34;;;;;;;8.88;1.33;;;;;;;22.82;38.32;102656.56;4978816;28;20051;-75
2022/09/21 09:11:05;;;;;;;5.25;0.90;;;;;;;22.55;40.77;102659.44;4996794;28;20096;-75
2022/09/21 09:13:39;;;;;;;15.25;1.70;;;;;;;21.97;38.88;102662.13;4990550;28;20086;-76
2022/09/21 09:16:17;;;;;;;10.85;1.38;;;;;;;22.17;40.43;102655.75;4974567;28;20035;-75
2022/09/21 09:18:46;;;;;;;8.93;1.63;;;;;;;21.70;38.71;102670.41;4974434;28;20030;-75
2022/09/21 09:21:15;;;;;;;8.77;1.55;;;;;;;20.77;41.13;102658.44;4974907;28;20065;-75
2022/09/21 09:23:45;;;;;;;9.30;1.45;;;;;;;20.10;42.44;102662.75;4986338;28;20022;-76
2022/09/21 09:26:16;;;;;;;9.55;1.48;;;;;;;19.82;43.03;102669.06;4994615;28;20038;-76
2022/09/21 09:28:48;;;;;;;6.70;1.40;;;;;;;19.52;43.44;102662.94;4997777;28;20034;-79
2022/09/21 09:31:24;;;;;;;5.88;1.00;;;;;;;19.05;44.72;102659.75;4997463;28;20026;-76
2022/09/21 09:33:55;;;;;;;12.50;2.00;;;;;;;18.99;46.40;102660.53;5001721;28;20035;-76
2022/09/21 09:36:23;;;;;;;9.20;1.30;;;;;;;19.28;45.53;102658.72;5007752;28;20034;-76
2022/09/21 09:38:59;;;;;;;8.90;1.25;;;;;;;18.84;46.49;102655.13;5004285;28;20405;-75
2022/09/21 09:41:34;;;;;;;9.15;0.93;;;;;;;18.84;47.03;102651.56;5000444;28;20037;-76
2022/09/21 09:44:13;;;;;;;11.63;1.20;;;;;;;18.71;45.28;102651.38;5000552;28;20023;-76
2022/09/21 09:47:19;;;;;;;12.40;1.23;;;;;;;18.35;47.70;102649.44;5003469;28;20446;-76
2022/09/21 09:50:22;;;;;;;5.07;1.30;;;;;;;18.25;49.24;102657.09;4915464;29;20040;-76
2022/09/21 09:52:48;;;;;;;10.15;1.13;;;;;;;18.65;48.43;102653.81;5006142;28;20034;-75
2022/09/21 09:55:20;;;;;;;4.57;1.00;;;;;;;18.56;47.08;102652.25;4984967;28;20076;-75
2022/09/21 09:57:46;;;;;;;7.40;1.25;;;;;;;18.58;48.85;102650.16;4988069;28;20026;-75
2022/09/21 10:00:13;;;;;;;10.45;1.83;;;;;;;18.62;49.30;102647.94;4986627;28;20110;-75
2022/09/21 10:02:59;;;;;;;7.68;2.05;;;;;;;18.52;48.29;102653.66;5006906;28;20159;-75
2022/09/21 10:05:27;;;;;;;9.98;1.40;;;;;;;18.29;46.93;102653.78;5009887;28;20077;-75
2022/09/21 10:07:52;;;;;;;8.63;2.00;;;;;;;18.09;48.50;102656.25;5020289;28;20054;-74
2022/09/21 10:10:21;;;;;;;13.30;1.85;;;;;;;17.72;50.06;102655.25;5004521;28;20026;-74
2022/09/21 10:12:47;;;;;;;6.57;1.30;;;;;;;17.41;49.37;102652.63;5022503;28;20022;-75
2022/09/21 10:15:14;;;;;;;7.78;1.10;;;;;;;17.29;49.46;102644.03;5002118;28;20037;-74
2022/09/21 10:17:40;;;;;;;7.75;1.30;;;;;;;17.18;49.77;102646.34;5005252;28;20036;-75
2022/09/21 10:20:07;;;;;;;8.13;1.20;;;;;;;17.18;49.97;102647.19;5004883;28;20021;-75
2022/09/21 10:22:32;;;;;;;14.95;1.23;;;;;;;17.16;51.88;102643.81;5004286;28;20482;-74
2022/09/21 10:25:00;;;;;;;5.68;1.30;;;;;;;17.06;50.16;102648.63;5005066;28;20032;-75
2022/09/21 10:27:33;;;;;;;10.20;1.80;;;;;;;16.72;50.53;102655.28;5007305;28;20052;-76
2022/09/21 10:29:59;;;;;;;12.32;1.27;;;;;;;16.97;50.74;102650.56;5029231;28;20033;-75
2022/09/21 10:32:26;;;;;;;5.85;1.27;;;;;;;17.08;50.85;102652.03;5029081;28;20022;-75
2022/09/21 10:35:12;;;;;;;9.33;1.40;;;;;;;17.10;50.06;102648.09;4995047;28;20018;-75
2022/09/21 10:37:43;;;;;;;14.20;1.90;;;;;;;17.21;50.96;102646.81;5020491;28;20052;-74
2022/09/21 10:40:18;;;;;;;10.63;1.77;;;;;;;17.48;50.13;102636.41;4983535;28;20285;-76
2022/09/21 10:42:44;;;;;;;9.32;1.35;;;;;;;17.66;49.85;102641.50;4994691;28;20533;-76
2022/09/21 10:45:19;;;;;;;10.10;1.50;;;;;;;17.79;48.41;102636.28;4997101;28;20022;-74
2022/09/21 10:47:47;;;;;;;9.63;1.15;;;;;;;17.74;45.32;102635.97;4997504;28;20385;-76
2022/09/21 10:50:27;;;;;;;6.75;0.85;;;;;;;17.50;45.30;102637.06;4995555;28;20026;-76
2022/09/21 10:53:12;;;;;;;10.18;1.45;;;;;;;17.53;46.44;102642.97;5013127;28;20120;-75
2022/09/21 10:55:39;;;;;;;4.32;1.08;;;;;;;17.82;47.60;102635.91;5012292;28;20045;-76
2022/09/21 10:58:12;;;;;;;3.13;0.80;;;;;;;18.06;47.29;102639.41;5000464;28;20029;-76
2022/09/21 11:00:46;;;;;;;5.15;1.10;;;;;;;18.14;47.29;102629.28;5027919;28;20061;-76
2022/09/21 11:03:39;;;;;;;7.47;1.13;;;;;;;18.37;44.70;102633.75;4993628;28;20027;-76
2022/09/21 11:06:09;;;;;;;9.32;1.48;;;;;;;17.80;43.00;102628.97;5008976;28;20041;-76
2022/09/21 11:08:40;;;;;;;9.82;1.15;;;;;;;17.89;45.83;102628.69;5013031;28;20034;-75
2022/09/21 11:11:29;;;;;;;6.50;1.00;;;;;;;18.07;45.09;102631.06;4976902;28;20092;-74
2022/09/21 11:14:13;;;;;;;7.97;1.10;;;;;;;17.99;44.73;102622.97;4993708;28;20068;-76
2022/09/21 11:16:46;;;;;;;3.53;0.90;;;;;;;17.89;45.11;102630.59;5005957;28;20034;-75
2022/09/21 11:19:33;;;;;;;9.50;1.15;;;;;;;18.36;44.97;102623.91;4974877;28;20141;-75
2022/09/21 11:22:27;;;;;;;13.07;1.73;;;;;;;18.90;44.77;102619.91;5012561;28;20573;-76
2022/09/21 11:25:06;;;;;;;8.13;1.20;;;;;;;19.26;43.27;102619.84;4993508;28;20041;-77
2022/09/21 11:27:38;;;;;;;6.85;1.15;;;;;;;19.61;43.24;102626.22;5005768;28;20036;-77
2022/09/21 11:30:09;;;;;;;7.50;1.35;;;;;;;19.36;42.12;102620.38;4988931;28;20437;-76
2022/09/21 11:32:55;;;;;;;6.72;1.27;;;;;;;19.26;42.20;102628.88;5019144;28;20114;-76
2022/09/21 11:35:55;;;;;;;5.45;1.00;;;;;;;18.83;43.32;102614.41;4993761;28;20081;-76
2022/09/21 11:38:42;;;;;;;6.22;0.90;;;;;;;18.84;42.33;102616.09;5004076;28;20529;-78